Skip to main content

NOAA/GLERL Met Station at Michigan City, IN

Previous 5 days (top of hour only)
See also Previous 3 Hours (2 minute increments)
Jump down to Data
Switch to [English][Metric]
Zoom: Click and drag, Pan: shift-click and drag, Unzoom: double-click, Unzoom All





Note: Speed = mean wind during 2-minute period at top of hour,
Gust = max wind during 2-minute period at top of hour,
Peak = max wind during entire hour.
• See also 5-day windrose plot


NOAA/GLERL Met Station at Michigan City, IN

Previous 5 days (top of hour only)
See also Previous 3 Hours (2 minute increments)
Jump up to Graphs
Switch to [English][Metric]
                  Wind  Wind  Wind   Air   Dew   Rel     Sta   PAR
                   Spd   Gst   Dir  Temp    Pt   Hum    Pres uE/m2/
YYYY-MM-DD   CDT   m/s   m/s   deg     C     C     %      mb   sec
2018-06-19 14:00   6.8   7.3    32  20.7   0.0   0.0    0.00  1717
2018-06-19 13:00   4.7   5.3    30  19.5   0.0   0.0    0.00  1512
2018-06-19 12:00   6.5   7.2   356  18.5   0.0   0.0    0.00   982
2018-06-19 11:00   7.6   8.7   340  20.2   0.0   0.0    0.00  1310
2018-06-19 10:00   2.5   2.8    17  19.2   0.0   0.0    0.00   900
2018-06-19 09:00   0.2   0.7   221  20.4   0.0   0.0    0.00   820
2018-06-19 08:00   1.3   1.6   236  18.0   0.0   0.0    0.00   269
2018-06-19 07:00   1.8   2.0   313  17.6   0.0   0.0    0.00   164
2018-06-19 06:00   0.2   0.7    86  17.6   0.0   0.0    0.00    82
2018-06-19 05:00   2.1   2.8   290  17.9   0.0   0.0    0.00     0
2018-06-19 04:00   1.6   2.1    62  17.6   0.0   0.0    0.00     0
2018-06-19 03:00   2.6   3.0    29  17.8   0.0   0.0    0.00     0
2018-06-19 02:00   3.2   3.6   262  17.6   0.0   0.0    0.00     0
2018-06-19 01:00   5.0   5.6   284  17.2   0.0   0.0    0.00     0
2018-06-19 00:00   3.9   4.4   282  18.3   0.0   0.0    0.00     0
2018-06-18 23:00   4.1   4.6   317  18.6   0.0   0.0    0.00     0
2018-06-18 22:00   2.4   3.2   286  20.6   0.0   0.0    0.00     0
2018-06-18 21:00   4.6   5.1   225  21.1   0.0   0.0    0.00     0
2018-06-18 20:00   1.1   1.6    14  21.8   0.0   0.0    0.00     0
2018-06-18 19:00   7.2   8.9    42  21.5   0.0   0.0    0.00   152
2018-06-18 18:00   6.6   7.1   248  26.5   0.0   0.0    0.00     0
2018-06-18 17:00   7.1   7.4   229  26.8   0.0   0.0    0.00     0
2018-06-18 16:00   9.4   9.7   231  28.6   0.0   0.0    0.00     0
2018-06-18 15:00   6.5   6.8   221  27.8   0.0   0.0    0.00     0
2018-06-18 14:00   5.5   5.8   225  27.5   0.0   0.0    0.00     0
2018-06-18 13:00   4.5   4.9   217  26.8   0.0   0.0    0.00     0
2018-06-18 12:00   3.5   3.7   226  25.7   0.0   0.0    0.00     0
2018-06-18 11:00   6.4   6.5   224  26.7   0.0   0.0    0.00     0
2018-06-18 10:00   7.0   7.7   228  25.5   0.0   0.0    0.00     0
2018-06-18 09:00   9.1   9.7   224  27.3   0.0   0.0    0.00     0
2018-06-18 08:00   9.4   9.9   220  26.4   0.0   0.0    0.00     0
2018-06-18 07:00   7.5   8.6   205  26.1   0.0   0.0    0.00     0
2018-06-18 06:00   7.4   8.8   194  26.0   0.0   0.0    0.00     0
2018-06-18 05:00   7.1   7.9   190  26.0   0.0   0.0    0.00     0
2018-06-18 04:00   7.4   8.2   184  26.2   0.0   0.0    0.00     0
2018-06-18 03:00   6.6   8.2   183  26.7   0.0   0.0    0.00     0
2018-06-18 02:00   7.8   9.0   181  27.1   0.0   0.0    0.00     0
2018-06-18 01:00   6.5   7.4   176  27.4   0.0   0.0    0.00     0
2018-06-18 00:00   6.4   7.3   180  27.8   0.0   0.0    0.00     0
2018-06-17 23:00   5.5   6.5   173  28.0   0.0   0.0    0.00     0
2018-06-17 22:00   5.9   6.7   173  28.9   0.0   0.0    0.00     0
2018-06-17 21:00   4.6   5.1   184  29.6   0.0   0.0    0.00     0
2018-06-17 20:00   5.0   6.1   186  30.4   0.0   0.0    0.00     0
2018-06-17 19:00   6.3   7.5   198  31.1   0.0   0.0    0.00     0
2018-06-17 18:00   8.3   9.2   200  31.9   0.0   0.0    0.00     0
2018-06-17 17:00   7.8   8.9   198  32.0   0.0   0.0    0.00     0
2018-06-17 16:00   6.2   8.2   195  31.3   0.0   0.0    0.00     0
2018-06-17 15:00   4.5   4.8   239  30.4   0.0   0.0    0.00     0
2018-06-17 14:00   4.0   4.3   262  31.2   0.0   0.0    0.00     0
2018-06-17 13:00   2.4   3.1   247  29.6   0.0   0.0    0.00     0
2018-06-17 12:00   4.0   4.4   238  29.0   0.0   0.0    0.00     0
2018-06-17 11:00   3.9   4.4   208  30.0   0.0   0.0    0.00     0
2018-06-17 10:00   4.2   4.5   210  28.1   0.0   0.0    0.00     0
2018-06-17 09:00   4.3   4.9   191  27.3   0.0   0.0    0.00     0
2018-06-17 08:00   5.3   6.5   181  26.6   0.0   0.0    0.00     0
2018-06-17 07:00   5.4   5.9   176  25.6   0.0   0.0    0.00     0
2018-06-17 06:00   4.0   4.8   185  25.6   0.0   0.0    0.00     0
2018-06-17 05:00   2.7   4.1   166  26.1   0.0   0.0    0.00     0
2018-06-17 04:00   5.7   6.9   173  26.4   0.0   0.0    0.00     0
2018-06-17 03:00   5.0   6.4   177  26.2   0.0   0.0    0.00     0
2018-06-17 02:00   6.7   7.6   178  26.5   0.0   0.0    0.00     0
2018-06-17 01:00   5.6   6.4   177  26.3   0.0   0.0    0.00     0
2018-06-17 00:00   6.6   8.6   161  27.4   0.0   0.0    0.00     0
2018-06-16 23:00   5.9   7.1   167  28.1   0.0   0.0    0.00     0
2018-06-16 22:00   5.3   6.3   159  28.8   0.0   0.0    0.00     0
2018-06-16 21:00   1.7   1.9   216  27.5   0.0   0.0    0.00     0
2018-06-16 20:00   0.9   1.4   212  29.2   0.0   0.0    0.00     0
2018-06-16 19:00   4.4   4.6    54  27.3   0.0   0.0    0.00     0
2018-06-16 18:00   2.5   3.3    39  28.6   0.0   0.0    0.00     0
2018-06-16 17:00   1.5   1.6    27  27.8   0.0   0.0    0.00     0
2018-06-16 16:00   2.1   2.3    23  26.6   0.0   0.0    0.00     0
2018-06-16 15:00   4.0   4.5    32  24.6   0.0   0.0    0.00     0
2018-06-16 14:00   1.9   2.8    37  27.6   0.0   0.0    0.00     0
2018-06-16 13:00   4.3   5.1    34  21.5   0.0   0.0    0.00     0
2018-06-16 12:00   7.3   7.7    40  20.0   0.0   0.0    0.00     0
2018-06-16 11:00   8.9   9.6    40  20.2   0.0   0.0    0.00     0
2018-06-16 10:00   4.6   4.9    50  20.1   0.0   0.0    0.00     0
2018-06-16 09:00   2.5   3.2   241  23.9   0.0   0.0    0.00     0
2018-06-16 08:00   5.3   7.3   155  22.5   0.0   0.0    0.00     0
2018-06-16 07:00   5.0   6.4   158  22.1   0.0   0.0    0.00     0
2018-06-16 06:00   5.5   6.8   177  20.7   0.0   0.0    0.00     0
2018-06-16 05:00   4.1   4.6   192  19.1   0.0   0.0    0.00     0
2018-06-16 04:00   2.5   2.6     6  19.6   0.0   0.0    0.00     0
2018-06-16 03:00   8.8   9.3     1  19.4   0.0   0.0    0.00     0
2018-06-16 02:00   7.8   9.1   165  25.0   0.0   0.0    0.00     0
2018-06-16 01:00   5.2   7.6   155  25.4   0.0   0.0    0.00     0
2018-06-16 00:00   5.6   7.0   143  25.8   0.0   0.0    0.00     0
2018-06-15 23:00   4.7   5.9   138  25.7   0.0   0.0    0.00     0
2018-06-15 22:00   4.0   4.8   140  26.6   0.0   0.0    0.00     0
2018-06-15 21:00   3.9   5.3   162  27.0   0.0   0.0    0.00     0
2018-06-15 20:00   3.3   4.3   157  28.3   0.0   0.0    0.00     0
2018-06-15 19:00   6.3   8.0   171  29.2   0.0   0.0    0.00     0
2018-06-15 18:00   5.1   6.2   111  29.2   0.0   0.0    0.00     0
2018-06-15 17:00   4.0   5.5   107  28.9   0.0   0.0    0.00     0
2018-06-15 16:00   1.8   2.5    26  23.7   0.0   0.0    0.00     0
2018-06-15 15:00   3.6   5.1    93  28.2   0.0   0.0    0.00     0
2018-06-15 14:00   5.1   5.6    41  22.8   0.0   0.0    0.00     0
2018-06-15 13:00   2.9   3.5   177  27.1   0.0   0.0    0.00     0
2018-06-15 12:00   4.3   5.9   121  26.4   0.0   0.0    0.00     0
2018-06-15 11:00   5.3   6.6   168  25.4   0.0   0.0    0.00     0
2018-06-15 10:00   5.7   6.5   133  24.5   0.0   0.0    0.00     0
2018-06-15 09:00   5.1   6.5   151  23.6   0.0   0.0    0.00     0
2018-06-15 08:00   7.2   9.0   142  21.9   0.0   0.0    0.00     0
2018-06-15 07:00   4.1   4.8   128  20.2   0.0   0.0    0.00     0
2018-06-15 06:00   4.4   5.2   111  18.8   0.0   0.0    0.00     0
2018-06-15 05:00   3.5   4.0   117  18.5   0.0   0.0    0.00     0
2018-06-15 04:00   4.6   4.9   119  18.9   0.0   0.0    0.00     0
2018-06-15 03:00   4.3   5.1   109  19.6   0.0   0.0    0.00     0
2018-06-15 02:00   4.0   4.5   116  18.8   0.0   0.0    0.00     0
2018-06-15 01:00   1.5   1.9    78  20.0   0.0   0.0    0.00     0
2018-06-15 00:00   3.6   3.9   106  20.2   0.0   0.0    0.00     0
2018-06-14 23:00   0.8   1.1   144  20.1   0.0   0.0    0.00     0
2018-06-14 22:00   0.1   0.3    15  21.0   0.0   0.0    0.00     0
2018-06-14 21:00   2.6   3.3   110  22.2   0.0   0.0    0.00     0
2018-06-14 20:00   2.5   3.3    65  21.4   0.0   0.0    0.00     0
2018-06-14 19:00   2.6   2.9    59  22.9   0.0   0.0    0.00     0